sensor_id;sensor_type;location;lat;lon;timestamp;temperature;humidity
29501;DHT22;16450;50.288;10.966;2023-12-22T00:01:12;3.20;99.90
29501;DHT22;16450;50.288;10.966;2023-12-22T00:04:17;3.20;99.90
29501;DHT22;16450;50.288;10.966;2023-12-22T00:07:19;3.20;99.90
29501;DHT22;16450;50.288;10.966;2023-12-22T00:10:22;3.10;99.90
29501;DHT22;16450;50.288;10.966;2023-12-22T00:13:24;3.10;99.90
29501;DHT22;16450;50.288;10.966;2023-12-22T00:16:25;3.10;99.90
29501;DHT22;16450;50.288;10.966;2023-12-22T00:19:28;3.00;99.90
29501;DHT22;16450;50.288;10.966;2023-12-22T00:22:30;3.10;99.90
29501;DHT22;16450;50.288;10.966;2023-12-22T00:25:32;3.10;99.90
29501;DHT22;16450;50.288;10.966;2023-12-22T00:28:34;3.00;99.90
29501;DHT22;16450;50.288;10.966;2023-12-22T00:31:36;3.00;99.90
29501;DHT22;16450;50.288;10.966;2023-12-22T00:34:38;3.10;99.90
29501;DHT22;16450;50.288;10.966;2023-12-22T00:37:39;3.10;99.90
29501;DHT22;16450;50.288;10.966;2023-12-22T00:40:41;3.10;99.90
29501;DHT22;16450;50.288;10.966;2023-12-22T00:43:43;3.10;99.90
29501;DHT22;16450;50.288;10.966;2023-12-22T00:46:45;3.00;99.90
29501;DHT22;16450;50.288;10.966;2023-12-22T00:49:47;3.00;99.90
29501;DHT22;16450;50.288;10.966;2023-12-22T00:52:49;3.00;99.90
29501;DHT22;16450;50.288;10.966;2023-12-22T00:55:51;2.90;99.90
29501;DHT22;16450;50.288;10.966;2023-12-22T00:58:53;2.90;99.90
29501;DHT22;16450;50.288;10.966;2023-12-22T01:02:06;2.90;99.90
29501;DHT22;16450;50.288;10.966;2023-12-22T01:05:07;2.90;99.90
29501;DHT22;16450;50.288;10.966;2023-12-22T01:08:09;2.80;99.90
29501;DHT22;16450;50.288;10.966;2023-12-22T01:11:12;2.90;99.90
29501;DHT22;16450;50.288;10.966;2023-12-22T01:14:14;2.90;99.90
29501;DHT22;16450;50.288;10.966;2023-12-22T01:17:16;2.90;99.90
29501;DHT22;16450;50.288;10.966;2023-12-22T01:20:17;3.00;99.90
29501;DHT22;16450;50.288;10.966;2023-12-22T01:23:20;3.00;99.90
29501;DHT22;16450;50.288;10.966;2023-12-22T01:26:22;3.10;99.90
29501;DHT22;16450;50.288;10.966;2023-12-22T01:29:23;3.20;99.90
29501;DHT22;16450;50.288;10.966;2023-12-22T01:32:25;3.20;99.90
29501;DHT22;16450;50.288;10.966;2023-12-22T01:35:27;3.30;99.90
29501;DHT22;16450;50.288;10.966;2023-12-22T01:38:30;3.30;99.90
29501;DHT22;16450;50.288;10.966;2023-12-22T01:41:32;3.40;99.90
29501;DHT22;16450;50.288;10.966;2023-12-22T01:44:34;3.40;99.90
29501;DHT22;16450;50.288;10.966;2023-12-22T01:47:36;3.40;99.90
29501;DHT22;16450;50.288;10.966;2023-12-22T01:50:38;3.50;99.90
29501;DHT22;16450;50.288;10.966;2023-12-22T01:53:41;3.50;99.90
29501;DHT22;16450;50.288;10.966;2023-12-22T01:56:43;3.50;99.90
29501;DHT22;16450;50.288;10.966;2023-12-22T01:59:46;3.60;99.90
29501;DHT22;16450;50.288;10.966;2023-12-22T02:02:49;3.60;99.90
29501;DHT22;16450;50.288;10.966;2023-12-22T02:05:51;3.60;99.90
29501;DHT22;16450;50.288;10.966;2023-12-22T02:08:54;3.60;99.90
29501;DHT22;16450;50.288;10.966;2023-12-22T02:11:55;3.60;99.90
29501;DHT22;16450;50.288;10.966;2023-12-22T02:14:58;3.60;99.90
29501;DHT22;16450;50.288;10.966;2023-12-22T02:18:22;3.60;99.90
29501;DHT22;16450;50.288;10.966;2023-12-22T02:21:26;3.50;99.90
29501;DHT22;16450;50.288;10.966;2023-12-22T02:24:29;3.50;99.90
29501;DHT22;16450;50.288;10.966;2023-12-22T02:27:48;3.50;99.90
29501;DHT22;16450;50.288;10.966;2023-12-22T02:34:18;3.50;99.90
29501;DHT22;16450;50.288;10.966;2023-12-22T02:37:22;3.50;99.90
29501;DHT22;16450;50.288;10.966;2023-12-22T02:40:25;3.50;99.90
29501;DHT22;16450;50.288;10.966;2023-12-22T02:43:28;3.40;99.90
29501;DHT22;16450;50.288;10.966;2023-12-22T02:46:30;3.40;99.90
29501;DHT22;16450;50.288;10.966;2023-12-22T02:49:33;3.40;99.90
29501;DHT22;16450;50.288;10.966;2023-12-22T02:52:35;3.40;99.90
29501;DHT22;16450;50.288;10.966;2023-12-22T02:55:37;3.40;99.90
29501;DHT22;16450;50.288;10.966;2023-12-22T02:58:38;3.40;99.90
29501;DHT22;16450;50.288;10.966;2023-12-22T03:01:40;3.40;99.90
29501;DHT22;16450;50.288;10.966;2023-12-22T03:04:42;3.40;99.90
29501;DHT22;16450;50.288;10.966;2023-12-22T03:07:44;3.40;99.90
29501;DHT22;16450;50.288;10.966;2023-12-22T03:10:46;3.40;99.90
29501;DHT22;16450;50.288;10.966;2023-12-22T03:13:48;3.40;99.90
29501;DHT22;16450;50.288;10.966;2023-12-22T03:16:50;3.40;99.90
29501;DHT22;16450;50.288;10.966;2023-12-22T03:19:52;3.40;99.90
29501;DHT22;16450;50.288;10.966;2023-12-22T03:22:54;3.40;99.90
29501;DHT22;16450;50.288;10.966;2023-12-22T03:25:56;3.30;99.90
29501;DHT22;16450;50.288;10.966;2023-12-22T03:28:58;3.30;99.90
29501;DHT22;16450;50.288;10.966;2023-12-22T03:32:00;3.30;99.90
29501;DHT22;16450;50.288;10.966;2023-12-22T03:35:02;3.20;99.90
29501;DHT22;16450;50.288;10.966;2023-12-22T03:38:04;3.20;99.90
29501;DHT22;16450;50.288;10.966;2023-12-22T03:41:06;3.20;99.90
29501;DHT22;16450;50.288;10.966;2023-12-22T03:44:08;3.30;99.90
29501;DHT22;16450;50.288;10.966;2023-12-22T03:47:10;3.20;99.90
29501;DHT22;16450;50.288;10.966;2023-12-22T03:50:12;3.20;99.90
29501;DHT22;16450;50.288;10.966;2023-12-22T03:53:13;3.30;99.90
29501;DHT22;16450;50.288;10.966;2023-12-22T03:56:15;3.30;99.90
29501;DHT22;16450;50.288;10.966;2023-12-22T03:59:17;3.40;99.90
29501;DHT22;16450;50.288;10.966;2023-12-22T04:02:20;3.40;99.90
29501;DHT22;16450;50.288;10.966;2023-12-22T04:05:22;3.40;99.90
29501;DHT22;16450;50.288;10.966;2023-12-22T04:08:24;3.40;99.90
29501;DHT22;16450;50.288;10.966;2023-12-22T04:11:25;3.40;99.90
29501;DHT22;16450;50.288;10.966;2023-12-22T04:14:27;3.40;99.90
29501;DHT22;16450;50.288;10.966;2023-12-22T04:17:29;3.40;99.90
29501;DHT22;16450;50.288;10.966;2023-12-22T04:20:31;3.50;99.90
29501;DHT22;16450;50.288;10.966;2023-12-22T04:23:34;3.50;99.90
29501;DHT22;16450;50.288;10.966;2023-12-22T04:26:36;3.50;99.90
29501;DHT22;16450;50.288;10.966;2023-12-22T04:29:37;3.50;99.90
29501;DHT22;16450;50.288;10.966;2023-12-22T04:32:39;3.50;99.90
29501;DHT22;16450;50.288;10.966;2023-12-22T04:35:41;3.60;99.90
29501;DHT22;16450;50.288;10.966;2023-12-22T04:38:43;3.60;99.90
29501;DHT22;16450;50.288;10.966;2023-12-22T04:41:45;3.60;99.90
29501;DHT22;16450;50.288;10.966;2023-12-22T04:44:46;3.60;99.90
29501;DHT22;16450;50.288;10.966;2023-12-22T04:47:48;3.60;99.90
29501;DHT22;16450;50.288;10.966;2023-12-22T04:50:51;3.60;99.90
29501;DHT22;16450;50.288;10.966;2023-12-22T04:53:53;3.60;99.90
29501;DHT22;16450;50.288;10.966;2023-12-22T04:56:54;3.60;99.90
29501;DHT22;16450;50.288;10.966;2023-12-22T04:59:56;3.60;99.90
29501;DHT22;16450;50.288;10.966;2023-12-22T05:02:58;3.60;99.90
29501;DHT22;16450;50.288;10.966;2023-12-22T05:06:00;3.60;99.90
29501;DHT22;16450;50.288;10.966;2023-12-22T05:09:02;3.60;99.90
29501;DHT22;16450;50.288;10.966;2023-12-22T05:12:04;3.60;99.90
29501;DHT22;16450;50.288;10.966;2023-12-22T05:15:06;3.60;99.90
29501;DHT22;16450;50.288;10.966;2023-12-22T05:18:08;3.60;99.90
29501;DHT22;16450;50.288;10.966;2023-12-22T05:21:13;3.60;99.90
29501;DHT22;16450;50.288;10.966;2023-12-22T05:24:16;3.60;99.90
29501;DHT22;16450;50.288;10.966;2023-12-22T05:27:18;3.60;99.90
29501;DHT22;16450;50.288;10.966;2023-12-22T05:30:20;3.60;99.90
29501;DHT22;16450;50.288;10.966;2023-12-22T05:33:22;3.60;99.90
29501;DHT22;16450;50.288;10.966;2023-12-22T05:36:24;3.60;99.90
29501;DHT22;16450;50.288;10.966;2023-12-22T05:39:27;3.50;99.90
29501;DHT22;16450;50.288;10.966;2023-12-22T05:42:29;3.50;99.90
29501;DHT22;16450;50.288;10.966;2023-12-22T05:45:31;3.40;99.90
29501;DHT22;16450;50.288;10.966;2023-12-22T05:48:34;3.40;99.90
29501;DHT22;16450;50.288;10.966;2023-12-22T05:51:37;3.30;99.90
29501;DHT22;16450;50.288;10.966;2023-12-22T05:54:39;3.30;99.90
29501;DHT22;16450;50.288;10.966;2023-12-22T05:57:41;3.30;99.90
29501;DHT22;16450;50.288;10.966;2023-12-22T06:00:43;3.30;99.90
29501;DHT22;16450;50.288;10.966;2023-12-22T06:03:48;3.30;99.90
29501;DHT22;16450;50.288;10.966;2023-12-22T06:06:50;3.30;99.90
29501;DHT22;16450;50.288;10.966;2023-12-22T06:09:52;3.30;99.90
29501;DHT22;16450;50.288;10.966;2023-12-22T06:12:54;3.20;99.90
29501;DHT22;16450;50.288;10.966;2023-12-22T06:15:55;3.20;99.90
29501;DHT22;16450;50.288;10.966;2023-12-22T06:18:57;3.20;99.90
29501;DHT22;16450;50.288;10.966;2023-12-22T06:21:59;3.30;99.90
29501;DHT22;16450;50.288;10.966;2023-12-22T06:25:02;3.20;99.90
29501;DHT22;16450;50.288;10.966;2023-12-22T06:28:09;3.30;99.90
29501;DHT22;16450;50.288;10.966;2023-12-22T06:31:21;3.30;99.90
29501;DHT22;16450;50.288;10.966;2023-12-22T06:34:23;3.20;99.90
29501;DHT22;16450;50.288;10.966;2023-12-22T06:37:25;3.30;99.90
29501;DHT22;16450;50.288;10.966;2023-12-22T06:40:28;3.30;99.90
29501;DHT22;16450;50.288;10.966;2023-12-22T06:43:30;3.30;99.90
29501;DHT22;16450;50.288;10.966;2023-12-22T06:46:32;3.30;99.90
29501;DHT22;16450;50.288;10.966;2023-12-22T06:49:34;3.30;99.90
29501;DHT22;16450;50.288;10.966;2023-12-22T06:52:36;3.30;99.90
29501;DHT22;16450;50.288;10.966;2023-12-22T06:55:37;3.30;99.90
29501;DHT22;16450;50.288;10.966;2023-12-22T06:58:39;3.40;99.90
29501;DHT22;16450;50.288;10.966;2023-12-22T07:01:41;3.30;99.90
29501;DHT22;16450;50.288;10.966;2023-12-22T07:08:22;3.30;99.90
29501;DHT22;16450;50.288;10.966;2023-12-22T07:11:24;3.30;99.90
29501;DHT22;16450;50.288;10.966;2023-12-22T07:14:38;3.30;99.90
29501;DHT22;16450;50.288;10.966;2023-12-22T07:17:40;3.30;99.90
29501;DHT22;16450;50.288;10.966;2023-12-22T07:20:42;3.30;99.90
29501;DHT22;16450;50.288;10.966;2023-12-22T07:23:44;3.30;99.90
29501;DHT22;16450;50.288;10.966;2023-12-22T07:26:46;3.30;99.90
29501;DHT22;16450;50.288;10.966;2023-12-22T07:29:48;3.30;99.90
29501;DHT22;16450;50.288;10.966;2023-12-22T07:32:51;3.30;99.90
29501;DHT22;16450;50.288;10.966;2023-12-22T07:35:54;3.40;99.90
29501;DHT22;16450;50.288;10.966;2023-12-22T07:38:56;3.40;99.90
29501;DHT22;16450;50.288;10.966;2023-12-22T07:41:59;3.40;99.90
29501;DHT22;16450;50.288;10.966;2023-12-22T07:45:01;3.30;99.90
29501;DHT22;16450;50.288;10.966;2023-12-22T07:48:05;3.30;99.90
29501;DHT22;16450;50.288;10.966;2023-12-22T07:51:07;3.30;99.90
29501;DHT22;16450;50.288;10.966;2023-12-22T07:54:10;3.30;99.90
29501;DHT22;16450;50.288;10.966;2023-12-22T07:57:11;3.40;99.90
29501;DHT22;16450;50.288;10.966;2023-12-22T08:00:14;3.40;99.90
29501;DHT22;16450;50.288;10.966;2023-12-22T08:03:16;3.40;99.90
29501;DHT22;16450;50.288;10.966;2023-12-22T08:06:18;3.50;99.90
29501;DHT22;16450;50.288;10.966;2023-12-22T08:09:20;3.50;99.90
29501;DHT22;16450;50.288;10.966;2023-12-22T08:12:21;3.60;99.90
29501;DHT22;16450;50.288;10.966;2023-12-22T08:15:23;3.60;99.90
29501;DHT22;16450;50.288;10.966;2023-12-22T08:18:37;3.60;99.90
29501;DHT22;16450;50.288;10.966;2023-12-22T08:21:39;3.70;99.90
29501;DHT22;16450;50.288;10.966;2023-12-22T08:24:47;3.70;99.90
29501;DHT22;16450;50.288;10.966;2023-12-22T08:27:49;3.70;99.90
29501;DHT22;16450;50.288;10.966;2023-12-22T08:30:52;3.80;99.90
29501;DHT22;16450;50.288;10.966;2023-12-22T08:33:54;3.80;99.90
29501;DHT22;16450;50.288;10.966;2023-12-22T08:36:56;3.80;99.90
29501;DHT22;16450;50.288;10.966;2023-12-22T08:39:58;3.80;99.90
29501;DHT22;16450;50.288;10.966;2023-12-22T08:43:01;3.80;99.90
29501;DHT22;16450;50.288;10.966;2023-12-22T08:46:03;3.80;99.90
29501;DHT22;16450;50.288;10.966;2023-12-22T08:49:05;3.90;99.90
29501;DHT22;16450;50.288;10.966;2023-12-22T08:52:07;3.90;99.90
29501;DHT22;16450;50.288;10.966;2023-12-22T08:55:08;3.90;99.90
29501;DHT22;16450;50.288;10.966;2023-12-22T08:58:10;3.90;99.90
29501;DHT22;16450;50.288;10.966;2023-12-22T09:01:16;4.00;99.90
29501;DHT22;16450;50.288;10.966;2023-12-22T09:04:18;4.00;99.90
29501;DHT22;16450;50.288;10.966;2023-12-22T09:07:20;4.00;99.90
29501;DHT22;16450;50.288;10.966;2023-12-22T09:10:24;4.00;99.90
29501;DHT22;16450;50.288;10.966;2023-12-22T09:13:27;4.00;99.90
29501;DHT22;16450;50.288;10.966;2023-12-22T09:16:29;4.10;99.90
29501;DHT22;16450;50.288;10.966;2023-12-22T09:19:34;4.10;99.90
29501;DHT22;16450;50.288;10.966;2023-12-22T09:22:36;4.20;99.90
29501;DHT22;16450;50.288;10.966;2023-12-22T09:25:38;4.20;99.90
29501;DHT22;16450;50.288;10.966;2023-12-22T09:28:41;4.30;99.90
29501;DHT22;16450;50.288;10.966;2023-12-22T09:31:43;4.30;99.90
29501;DHT22;16450;50.288;10.966;2023-12-22T09:34:45;4.30;99.90
29501;DHT22;16450;50.288;10.966;2023-12-22T09:37:47;4.30;99.90
29501;DHT22;16450;50.288;10.966;2023-12-22T09:40:50;4.40;99.90
29501;DHT22;16450;50.288;10.966;2023-12-22T09:43:55;4.40;99.90
29501;DHT22;16450;50.288;10.966;2023-12-22T09:47:00;4.40;99.90
29501;DHT22;16450;50.288;10.966;2023-12-22T09:50:06;4.40;99.90
29501;DHT22;16450;50.288;10.966;2023-12-22T09:53:12;4.40;99.90
29501;DHT22;16450;50.288;10.966;2023-12-22T09:56:15;4.50;99.90
29501;DHT22;16450;50.288;10.966;2023-12-22T09:59:19;4.50;99.90
29501;DHT22;16450;50.288;10.966;2023-12-22T10:02:25;4.50;99.90
29501;DHT22;16450;50.288;10.966;2023-12-22T10:05:30;4.50;99.90
29501;DHT22;16450;50.288;10.966;2023-12-22T10:08:33;4.50;99.90
29501;DHT22;16450;50.288;10.966;2023-12-22T10:11:36;4.50;99.90
29501;DHT22;16450;50.288;10.966;2023-12-22T10:14:39;4.50;99.90
29501;DHT22;16450;50.288;10.966;2023-12-22T10:17:42;4.50;99.90
29501;DHT22;16450;50.288;10.966;2023-12-22T10:20:45;4.50;99.90
29501;DHT22;16450;50.288;10.966;2023-12-22T10:23:47;4.60;99.90
29501;DHT22;16450;50.288;10.966;2023-12-22T10:26:49;4.60;99.90
29501;DHT22;16450;50.288;10.966;2023-12-22T10:29:56;4.60;99.90
29501;DHT22;16450;50.288;10.966;2023-12-22T10:32:58;4.60;99.90
29501;DHT22;16450;50.288;10.966;2023-12-22T10:36:01;4.60;99.90
29501;DHT22;16450;50.288;10.966;2023-12-22T10:39:03;4.60;99.90
29501;DHT22;16450;50.288;10.966;2023-12-22T10:42:05;4.50;99.90
29501;DHT22;16450;50.288;10.966;2023-12-22T10:45:07;4.50;99.90
29501;DHT22;16450;50.288;10.966;2023-12-22T10:48:10;4.50;99.90
29501;DHT22;16450;50.288;10.966;2023-12-22T10:51:13;4.50;99.90
29501;DHT22;16450;50.288;10.966;2023-12-22T10:54:16;4.50;99.90
29501;DHT22;16450;50.288;10.966;2023-12-22T10:57:18;4.50;99.90
29501;DHT22;16450;50.288;10.966;2023-12-22T11:00:22;4.40;99.90
29501;DHT22;16450;50.288;10.966;2023-12-22T11:03:26;4.40;99.90
29501;DHT22;16450;50.288;10.966;2023-12-22T11:06:30;4.40;99.90
29501;DHT22;16450;50.288;10.966;2023-12-22T11:09:35;4.40;99.90
29501;DHT22;16450;50.288;10.966;2023-12-22T11:12:38;4.30;99.90
29501;DHT22;16450;50.288;10.966;2023-12-22T11:15:41;4.30;99.90
29501;DHT22;16450;50.288;10.966;2023-12-22T11:18:44;4.30;99.90
29501;DHT22;16450;50.288;10.966;2023-12-22T11:21:49;4.20;99.90
29501;DHT22;16450;50.288;10.966;2023-12-22T11:24:52;4.20;99.90
29501;DHT22;16450;50.288;10.966;2023-12-22T11:27:55;4.20;99.90
29501;DHT22;16450;50.288;10.966;2023-12-22T11:30:58;4.10;99.90
29501;DHT22;16450;50.288;10.966;2023-12-22T11:34:01;4.10;99.90
29501;DHT22;16450;50.288;10.966;2023-12-22T11:37:14;4.10;99.90
29501;DHT22;16450;50.288;10.966;2023-12-22T11:40:16;4.10;99.90
29501;DHT22;16450;50.288;10.966;2023-12-22T11:43:18;4.10;99.90
29501;DHT22;16450;50.288;10.966;2023-12-22T11:46:21;4.10;99.90
29501;DHT22;16450;50.288;10.966;2023-12-22T11:49:37;4.10;99.90
29501;DHT22;16450;50.288;10.966;2023-12-22T11:52:39;4.10;99.90
29501;DHT22;16450;50.288;10.966;2023-12-22T11:56:06;4.10;99.90
29501;DHT22;16450;50.288;10.966;2023-12-22T11:59:12;4.10;99.90
29501;DHT22;16450;50.288;10.966;2023-12-22T12:02:18;4.10;99.90
29501;DHT22;16450;50.288;10.966;2023-12-22T12:05:20;4.10;99.90
29501;DHT22;16450;50.288;10.966;2023-12-22T12:08:29;4.10;99.90
29501;DHT22;16450;50.288;10.966;2023-12-22T12:15:08;4.10;99.90
29501;DHT22;16450;50.288;10.966;2023-12-22T12:18:10;4.10;99.90
29501;DHT22;16450;50.288;10.966;2023-12-22T12:21:15;4.10;99.90
29501;DHT22;16450;50.288;10.966;2023-12-22T12:24:18;4.10;99.90
29501;DHT22;16450;50.288;10.966;2023-12-22T12:27:20;4.10;99.90
29501;DHT22;16450;50.288;10.966;2023-12-22T12:30:22;4.10;99.90
29501;DHT22;16450;50.288;10.966;2023-12-22T12:33:25;4.10;99.90
29501;DHT22;16450;50.288;10.966;2023-12-22T12:36:28;4.10;99.90
29501;DHT22;16450;50.288;10.966;2023-12-22T12:39:30;4.10;99.90
29501;DHT22;16450;50.288;10.966;2023-12-22T12:42:36;4.10;99.90
29501;DHT22;16450;50.288;10.966;2023-12-22T12:45:38;4.10;99.90
29501;DHT22;16450;50.288;10.966;2023-12-22T12:48:40;4.10;99.90
29501;DHT22;16450;50.288;10.966;2023-12-22T12:51:47;4.10;99.90
29501;DHT22;16450;50.288;10.966;2023-12-22T12:54:49;4.10;99.90
29501;DHT22;16450;50.288;10.966;2023-12-22T12:57:55;4.10;99.90
29501;DHT22;16450;50.288;10.966;2023-12-22T13:01:07;4.00;99.90
29501;DHT22;16450;50.288;10.966;2023-12-22T13:04:10;4.00;99.90
29501;DHT22;16450;50.288;10.966;2023-12-22T13:07:23;3.90;99.90
29501;DHT22;16450;50.288;10.966;2023-12-22T13:10:26;3.80;99.90
29501;DHT22;16450;50.288;10.966;2023-12-22T13:13:29;3.80;99.90
29501;DHT22;16450;50.288;10.966;2023-12-22T13:16:31;3.70;99.90
29501;DHT22;16450;50.288;10.966;2023-12-22T13:19:34;3.70;99.90
29501;DHT22;16450;50.288;10.966;2023-12-22T13:22:36;3.60;99.90
29501;DHT22;16450;50.288;10.966;2023-12-22T13:25:41;3.60;99.90
29501;DHT22;16450;50.288;10.966;2023-12-22T13:28:43;3.60;99.90
29501;DHT22;16450;50.288;10.966;2023-12-22T13:31:45;3.60;99.90
29501;DHT22;16450;50.288;10.966;2023-12-22T13:34:49;3.60;99.90
29501;DHT22;16450;50.288;10.966;2023-12-22T13:37:52;3.50;99.90
29501;DHT22;16450;50.288;10.966;2023-12-22T13:40:54;3.60;99.90
29501;DHT22;16450;50.288;10.966;2023-12-22T13:43:56;3.60;99.90
29501;DHT22;16450;50.288;10.966;2023-12-22T13:47:03;3.60;99.90
29501;DHT22;16450;50.288;10.966;2023-12-22T13:50:13;3.60;99.90
29501;DHT22;16450;50.288;10.966;2023-12-22T13:53:16;3.60;99.90
29501;DHT22;16450;50.288;10.966;2023-12-22T13:56:18;3.60;99.90
29501;DHT22;16450;50.288;10.966;2023-12-22T13:59:31;3.60;99.90
29501;DHT22;16450;50.288;10.966;2023-12-22T14:02:33;3.60;99.90
29501;DHT22;16450;50.288;10.966;2023-12-22T14:05:35;3.70;99.90
29501;DHT22;16450;50.288;10.966;2023-12-22T14:08:41;3.70;99.90
29501;DHT22;16450;50.288;10.966;2023-12-22T14:11:46;3.70;99.90
29501;DHT22;16450;50.288;10.966;2023-12-22T14:15:02;3.60;99.90
29501;DHT22;16450;50.288;10.966;2023-12-22T14:18:04;3.70;99.90
29501;DHT22;16450;50.288;10.966;2023-12-22T14:21:06;3.70;99.90
29501;DHT22;16450;50.288;10.966;2023-12-22T14:24:07;3.60;99.90
29501;DHT22;16450;50.288;10.966;2023-12-22T14:27:09;3.60;99.90
29501;DHT22;16450;50.288;10.966;2023-12-22T14:30:12;3.70;99.90
29501;DHT22;16450;50.288;10.966;2023-12-22T14:33:14;3.70;99.90
29501;DHT22;16450;50.288;10.966;2023-12-22T14:36:16;3.70;99.90
29501;DHT22;16450;50.288;10.966;2023-12-22T14:39:19;3.70;99.90
29501;DHT22;16450;50.288;10.966;2023-12-22T14:42:20;3.70;99.90
29501;DHT22;16450;50.288;10.966;2023-12-22T14:45:22;3.70;99.90
29501;DHT22;16450;50.288;10.966;2023-12-22T14:48:24;3.70;99.90
29501;DHT22;16450;50.288;10.966;2023-12-22T14:51:26;3.80;99.90
29501;DHT22;16450;50.288;10.966;2023-12-22T14:54:28;3.80;99.90
29501;DHT22;16450;50.288;10.966;2023-12-22T14:57:30;3.80;99.90
29501;DHT22;16450;50.288;10.966;2023-12-22T15:00:32;3.80;99.90
29501;DHT22;16450;50.288;10.966;2023-12-22T15:03:34;3.80;99.90
29501;DHT22;16450;50.288;10.966;2023-12-22T15:06:40;3.80;99.90
29501;DHT22;16450;50.288;10.966;2023-12-22T15:09:42;3.80;99.90
29501;DHT22;16450;50.288;10.966;2023-12-22T15:12:44;3.80;99.90
29501;DHT22;16450;50.288;10.966;2023-12-22T15:15:47;3.80;99.90
29501;DHT22;16450;50.288;10.966;2023-12-22T15:18:51;3.80;99.90
29501;DHT22;16450;50.288;10.966;2023-12-22T15:21:53;3.80;99.90
29501;DHT22;16450;50.288;10.966;2023-12-22T15:24:55;3.80;99.90
29501;DHT22;16450;50.288;10.966;2023-12-22T15:27:57;3.90;99.90
29501;DHT22;16450;50.288;10.966;2023-12-22T15:30:59;3.90;99.90
29501;DHT22;16450;50.288;10.966;2023-12-22T15:34:01;3.90;99.90
29501;DHT22;16450;50.288;10.966;2023-12-22T15:37:03;3.90;99.90
29501;DHT22;16450;50.288;10.966;2023-12-22T15:40:05;3.90;99.90
29501;DHT22;16450;50.288;10.966;2023-12-22T15:43:07;3.90;99.90
29501;DHT22;16450;50.288;10.966;2023-12-22T15:46:10;3.90;99.90
29501;DHT22;16450;50.288;10.966;2023-12-22T15:49:12;4.00;99.90
29501;DHT22;16450;50.288;10.966;2023-12-22T15:52:14;4.00;99.90
29501;DHT22;16450;50.288;10.966;2023-12-22T15:55:16;4.00;99.90
29501;DHT22;16450;50.288;10.966;2023-12-22T15:58:18;4.00;99.90
29501;DHT22;16450;50.288;10.966;2023-12-22T16:01:20;4.00;99.90
29501;DHT22;16450;50.288;10.966;2023-12-22T16:04:22;4.10;99.90
29501;DHT22;16450;50.288;10.966;2023-12-22T16:07:24;4.10;99.90
29501;DHT22;16450;50.288;10.966;2023-12-22T16:10:26;4.10;99.90
29501;DHT22;16450;50.288;10.966;2023-12-22T16:13:28;4.10;99.90
29501;DHT22;16450;50.288;10.966;2023-12-22T16:16:33;4.20;99.90
29501;DHT22;16450;50.288;10.966;2023-12-22T16:19:38;4.20;99.90
29501;DHT22;16450;50.288;10.966;2023-12-22T16:22:41;4.20;99.90
29501;DHT22;16450;50.288;10.966;2023-12-22T16:25:42;4.30;99.90
29501;DHT22;16450;50.288;10.966;2023-12-22T16:28:45;4.30;99.90
29501;DHT22;16450;50.288;10.966;2023-12-22T16:31:47;4.30;99.90
29501;DHT22;16450;50.288;10.966;2023-12-22T16:34:49;4.40;99.90
29501;DHT22;16450;50.288;10.966;2023-12-22T16:37:51;4.40;99.90
29501;DHT22;16450;50.288;10.966;2023-12-22T16:40:53;4.40;99.90
29501;DHT22;16450;50.288;10.966;2023-12-22T16:43:55;4.40;99.90
29501;DHT22;16450;50.288;10.966;2023-12-22T16:46:57;4.50;99.90
29501;DHT22;16450;50.288;10.966;2023-12-22T16:49:59;4.50;99.90
29501;DHT22;16450;50.288;10.966;2023-12-22T16:53:01;4.60;99.90
29501;DHT22;16450;50.288;10.966;2023-12-22T16:56:03;4.60;99.90
29501;DHT22;16450;50.288;10.966;2023-12-22T16:59:06;4.60;99.90
29501;DHT22;16450;50.288;10.966;2023-12-22T17:02:08;4.60;99.90
29501;DHT22;16450;50.288;10.966;2023-12-22T17:05:30;4.70;99.90
29501;DHT22;16450;50.288;10.966;2023-12-22T17:08:33;4.70;99.90
29501;DHT22;16450;50.288;10.966;2023-12-22T17:11:35;4.70;99.90
29501;DHT22;16450;50.288;10.966;2023-12-22T17:14:38;4.80;99.90
29501;DHT22;16450;50.288;10.966;2023-12-22T17:17:40;4.80;99.90
29501;DHT22;16450;50.288;10.966;2023-12-22T17:20:42;4.80;99.90
29501;DHT22;16450;50.288;10.966;2023-12-22T17:23:50;4.80;99.90
29501;DHT22;16450;50.288;10.966;2023-12-22T17:26:52;4.80;99.90
29501;DHT22;16450;50.288;10.966;2023-12-22T17:29:53;4.90;99.90
29501;DHT22;16450;50.288;10.966;2023-12-22T17:32:55;4.90;99.90
29501;DHT22;16450;50.288;10.966;2023-12-22T17:35:57;5.00;99.90
29501;DHT22;16450;50.288;10.966;2023-12-22T17:38:59;5.00;99.90
29501;DHT22;16450;50.288;10.966;2023-12-22T17:42:01;5.10;99.90
29501;DHT22;16450;50.288;10.966;2023-12-22T17:45:03;5.10;99.90
29501;DHT22;16450;50.288;10.966;2023-12-22T17:48:06;5.10;99.90
29501;DHT22;16450;50.288;10.966;2023-12-22T17:51:08;5.10;99.90
29501;DHT22;16450;50.288;10.966;2023-12-22T17:54:10;5.20;99.90
29501;DHT22;16450;50.288;10.966;2023-12-22T17:57:12;5.20;99.90
29501;DHT22;16450;50.288;10.966;2023-12-22T18:00:16;5.20;99.90
29501;DHT22;16450;50.288;10.966;2023-12-22T18:03:18;5.30;99.90
29501;DHT22;16450;50.288;10.966;2023-12-22T18:06:20;5.30;99.90
29501;DHT22;16450;50.288;10.966;2023-12-22T18:09:22;5.40;99.90
29501;DHT22;16450;50.288;10.966;2023-12-22T18:12:24;5.40;99.90
29501;DHT22;16450;50.288;10.966;2023-12-22T18:15:26;5.40;99.90
29501;DHT22;16450;50.288;10.966;2023-12-22T18:18:28;5.50;99.90
29501;DHT22;16450;50.288;10.966;2023-12-22T18:21:31;5.50;99.90
29501;DHT22;16450;50.288;10.966;2023-12-22T18:24:34;5.50;99.90
29501;DHT22;16450;50.288;10.966;2023-12-22T18:27:37;5.50;99.90
29501;DHT22;16450;50.288;10.966;2023-12-22T18:30:39;5.50;99.90
29501;DHT22;16450;50.288;10.966;2023-12-22T18:33:41;5.50;99.90
29501;DHT22;16450;50.288;10.966;2023-12-22T18:36:43;5.60;99.90
29501;DHT22;16450;50.288;10.966;2023-12-22T18:39:45;5.60;99.90
29501;DHT22;16450;50.288;10.966;2023-12-22T18:42:47;5.60;99.90
29501;DHT22;16450;50.288;10.966;2023-12-22T18:45:49;5.60;99.90
29501;DHT22;16450;50.288;10.966;2023-12-22T18:48:53;5.70;99.90
29501;DHT22;16450;50.288;10.966;2023-12-22T18:51:55;5.70;99.90
29501;DHT22;16450;50.288;10.966;2023-12-22T18:54:57;5.70;99.90
29501;DHT22;16450;50.288;10.966;2023-12-22T18:58:00;5.70;99.90
29501;DHT22;16450;50.288;10.966;2023-12-22T19:01:02;5.70;99.90
29501;DHT22;16450;50.288;10.966;2023-12-22T19:04:04;5.80;99.90
29501;DHT22;16450;50.288;10.966;2023-12-22T19:07:06;5.80;99.90
29501;DHT22;16450;50.288;10.966;2023-12-22T19:10:09;5.80;99.90
29501;DHT22;16450;50.288;10.966;2023-12-22T19:13:11;5.90;99.90
29501;DHT22;16450;50.288;10.966;2023-12-22T19:16:14;5.90;99.90
29501;DHT22;16450;50.288;10.966;2023-12-22T19:19:16;5.90;99.90
29501;DHT22;16450;50.288;10.966;2023-12-22T19:22:18;5.90;99.90
29501;DHT22;16450;50.288;10.966;2023-12-22T19:25:22;5.90;99.90